Time;durP1;ratioP1;P1;durP2;ratioP2;P2;SDS_P1;SDS_P2;PMS_P1;PMS_P2;Temp;Humidity;BMP_temperature;BMP_pressure;BME280_temperature;BME280_humidity;BME280_pressure;Samples;Min_cycle;Max_cycle;Signal;HPM_P1;HPM_P2
2023/12/01 00:00:54;;;;;;;;;;;;;;;19.93;44.11;96399.48;620951;228;64634;-67
2023/12/01 00:03:21;;;;;;;;;;;;;;;19.93;44.11;96394.16;620958;228;64800;-68
2023/12/01 00:05:49;;;;;;;;;;;;;;;19.94;44.13;96401.06;620934;228;64422;-67
2023/12/01 00:08:16;;;;;;;;;;;;;;;19.93;44.12;96404.82;620933;228;64625;-67
2023/12/01 00:10:44;;;;;;;;;;;;;;;19.94;44.11;96395.73;620896;228;62642;-67
2023/12/01 00:13:11;;;;;;;;;;;;;;;19.93;44.10;96407.48;620947;228;64908;-67
2023/12/01 00:15:39;;;;;;;;;;;;;;;19.93;44.09;96410.16;620919;228;66711;-67
2023/12/01 00:18:06;;;;;;;;;;;;;;;19.93;44.10;96408.28;620933;228;64827;-67
2023/12/01 00:20:34;;;;;;;;;;;;;;;19.93;44.11;96402.16;620914;228;64580;-67
2023/12/01 00:23:01;;;;;;;;;;;;;;;19.93;44.10;96402.95;620924;227;66740;-67
2023/12/01 00:25:28;;;;;;;;;;;;;;;19.93;44.11;96399.48;620973;228;64687;-67
2023/12/01 00:27:58;;;;;;;;;;;;;;;19.94;44.06;96401.06;620909;228;66876;-68
2023/12/01 00:30:28;;;;;;;;;;;;;;;19.94;44.07;96406.40;620928;228;66749;-67
2023/12/01 00:32:55;;;;;;;;;;;;;;;19.93;44.07;96410.16;620821;227;65168;-67
2023/12/01 00:35:22;;;;;;;;;;;;;;;19.93;44.06;96412.82;620909;228;66781;-67
2023/12/01 00:37:50;;;;;;;;;;;;;;;19.94;44.05;96395.73;620984;228;64711;-67
2023/12/01 00:40:17;;;;;;;;;;;;;;;19.93;44.04;96404.82;620948;228;65295;-67
2023/12/01 00:42:45;;;;;;;;;;;;;;;19.93;44.03;96413.61;620896;227;67698;-67
2023/12/01 00:45:12;;;;;;;;;;;;;;;19.94;44.05;96414.41;620980;228;66776;-67
2023/12/01 00:47:40;;;;;;;;;;;;;;;19.93;44.03;96413.61;620949;227;64704;-67
2023/12/01 00:50:09;;;;;;;;;;;;;;;19.93;44.02;96410.16;620972;228;66771;-63
2023/12/01 00:52:36;;;;;;;;;;;;;;;19.94;44.01;96420.55;621035;228;64390;-63
2023/12/01 00:55:04;;;;;;;;;;;;;;;19.94;44.01;96407.22;620916;228;62463;-63
2023/12/01 00:57:32;;;;;;;;;;;;;;;19.94;44.00;96407.22;620963;228;66890;-63
2023/12/01 00:59:59;;;;;;;;;;;;;;;19.93;43.99;96400.27;620935;227;64768;-63
2023/12/01 01:02:27;;;;;;;;;;;;;;;19.94;43.99;96401.06;620947;228;64880;-63
2023/12/01 01:04:54;;;;;;;;;;;;;;;19.93;43.97;96402.95;620983;228;64456;-63
2023/12/01 01:07:22;;;;;;;;;;;;;;;19.93;43.93;96392.28;620945;228;64345;-63
2023/12/01 01:09:50;;;;;;;;;;;;;;;19.94;43.96;96403.73;620967;228;64680;-63
2023/12/01 01:12:17;;;;;;;;;;;;;;;19.93;43.92;96400.27;620952;228;65306;-63
2023/12/01 01:14:45;;;;;;;;;;;;;;;19.94;43.92;96406.40;620955;228;65277;-63
2023/12/01 01:17:12;;;;;;;;;;;;;;;19.94;43.93;96411.73;621047;228;64784;-63
2023/12/01 01:19:40;;;;;;;;;;;;;;;19.94;43.94;96401.06;620972;228;64079;-63
2023/12/01 01:22:08;;;;;;;;;;;;;;;19.93;43.97;96394.94;620914;228;66805;-63
2023/12/01 01:24:35;;;;;;;;;;;;;;;19.93;43.93;96392.28;620933;228;62267;-63
2023/12/01 01:27:03;;;;;;;;;;;;;;;19.93;43.93;96386.94;620954;228;67759;-63
2023/12/01 01:29:31;;;;;;;;;;;;;;;19.94;43.94;96383.22;620976;228;66863;-63
2023/12/01 01:31:59;;;;;;;;;;;;;;;19.94;43.92;96377.89;620956;228;64886;-67
2023/12/01 01:34:27;;;;;;;;;;;;;;;19.93;43.92;96375.48;622832;227;66862;-67
2023/12/01 01:36:55;;;;;;;;;;;;;;;19.94;43.91;96379.73;623312;227;67316;-67
2023/12/01 01:39:22;;;;;;;;;;;;;;;19.93;43.90;96384.27;623361;227;62534;-67
2023/12/01 01:41:50;;;;;;;;;;;;;;;19.93;43.89;96383.48;623430;227;65129;-67
2023/12/01 01:44:17;;;;;;;;;;;;;;;19.94;43.86;96382.40;623358;227;66499;-67
2023/12/01 01:46:46;;;;;;;;;;;;;;;19.93;43.85;96383.48;623358;227;64721;-63
2023/12/01 01:49:14;;;;;;;;;;;;;;;19.93;43.83;96378.94;623291;227;64147;-63
2023/12/01 01:51:41;;;;;;;;;;;;;;;19.94;43.85;96385.06;623359;227;64904;-63
2023/12/01 01:54:10;;;;;;;;;;;;;;;19.93;43.84;96372.82;623383;227;62691;-63
2023/12/01 01:56:38;;;;;;;;;;;;;;;19.93;43.84;96378.16;623385;227;67739;-63
2023/12/01 01:59:06;;;;;;;;;;;;;;;19.93;43.83;96383.48;623319;227;66496;-63
2023/12/01 02:01:39;;;;;;;;;;;;;;;19.93;43.83;96378.94;623337;227;64712;-67
2023/12/01 02:04:03;;;;;;;;;;;;;;;19.94;43.85;96374.40;623164;227;67317;-63
2023/12/01 02:06:32;;;;;;;;;;;;;;;19.93;43.83;96381.61;623367;227;66465;-68
2023/12/01 02:09:01;;;;;;;;;;;;;;;19.93;43.84;96368.28;623344;227;63396;-67
2023/12/01 02:11:28;;;;;;;;;;;;;;;19.93;43.84;96359.48;623347;227;67033;-63
2023/12/01 02:13:59;;;;;;;;;;;;;;;19.94;43.83;96363.73;623318;227;64671;-67
2023/12/01 02:16:25;;;;;;;;;;;;;;;19.94;43.81;96363.73;623256;227;62494;-67
2023/12/01 02:18:56;;;;;;;;;;;;;;;19.93;43.80;96351.48;623333;227;67455;-68
2023/12/01 02:21:29;;;;;;;;;;;;;;;19.93;43.79;96368.28;623377;227;67615;-67
2023/12/01 02:23:54;;;;;;;;;;;;;;;19.93;43.80;96364.81;623128;227;64879;-68
2023/12/01 02:26:27;;;;;;;;;;;;;;;19.94;43.80;96369.06;623338;227;66726;-67
2023/12/01 02:28:51;;;;;;;;;;;;;;;19.93;43.80;96356.81;623155;227;64655;-67
2023/12/01 02:31:19;;;;;;;;;;;;;;;19.93;43.81;96359.48;623363;227;63331;-67
2023/12/01 02:33:46;;;;;;;;;;;;;;;19.93;43.78;96351.48;622053;227;66580;-67
2023/12/01 02:36:15;;;;;;;;;;;;;;;19.93;43.80;96346.94;620948;228;66582;-67
2023/12/01 02:38:42;;;;;;;;;;;;;;;19.93;43.78;96343.48;620909;228;63342;-67
2023/12/01 02:41:10;;;;;;;;;;;;;;;19.92;43.78;96348.03;620912;228;65642;-63
2023/12/01 02:43:38;;;;;;;;;;;;;;;19.92;43.77;96342.70;620926;228;67273;-63
2023/12/01 02:46:05;;;;;;;;;;;;;;;19.92;43.79;96334.69;620935;228;64579;-63
2023/12/01 02:48:33;;;;;;;;;;;;;;;19.92;43.77;96323.23;620995;228;66832;-63
2023/12/01 02:51:00;;;;;;;;;;;;;;;19.92;43.78;96324.03;620943;228;66804;-63
2023/12/01 02:53:28;;;;;;;;;;;;;;;19.93;43.76;96320.27;620920;228;64629;-63
2023/12/01 02:55:55;;;;;;;;;;;;;;;19.92;43.76;96321.36;620890;228;64862;-63
2023/12/01 02:58:24;;;;;;;;;;;;;;;19.92;43.78;96321.36;620946;228;64675;-63
2023/12/01 03:00:52;;;;;;;;;;;;;;;19.93;43.74;96324.81;620976;228;64718;-63
2023/12/01 03:03:20;;;;;;;;;;;;;;;19.93;43.75;96316.81;620902;228;65998;-63
2023/12/01 03:05:47;;;;;;;;;;;;;;;19.93;43.74;96316.81;620923;228;65690;-63
2023/12/01 03:08:15;;;;;;;;;;;;;;;19.93;43.76;96303.48;620900;228;64719;-63
2023/12/01 03:10:42;;;;;;;;;;;;;;;19.92;43.76;96305.36;620892;228;64403;-63
2023/12/01 03:13:10;;;;;;;;;;;;;;;19.92;43.76;96308.03;620975;228;67777;-63
2023/12/01 03:15:37;;;;;;;;;;;;;;;19.93;43.76;96309.61;620934;228;64616;-62
2023/12/01 03:18:05;;;;;;;;;;;;;;;19.93;43.76;96298.15;620919;228;67207;-63
2023/12/01 03:20:32;;;;;;;;;;;;;;;19.93;43.78;96311.48;620934;228;66618;-63
2023/12/01 03:23:00;;;;;;;;;;;;;;;19.93;43.78;96316.81;620891;228;65451;-63
2023/12/01 03:25:28;;;;;;;;;;;;;;;19.93;43.78;96319.48;620953;228;67259;-62
2023/12/01 03:27:55;;;;;;;;;;;;;;;19.93;43.76;96320.27;620887;228;65311;-63
2023/12/01 03:30:23;;;;;;;;;;;;;;;19.93;43.76;96314.15;620916;228;63312;-63
2023/12/01 03:32:51;;;;;;;;;;;;;;;19.92;43.79;96312.57;621226;227;67095;-63
2023/12/01 03:35:22;;;;;;;;;;;;;;;19.93;43.77;96327.48;623302;227;65008;-63
2023/12/01 03:37:50;;;;;;;;;;;;;;;19.92;43.76;96307.23;623343;227;62570;-63
2023/12/01 03:40:18;;;;;;;;;;;;;;;19.93;43.78;96306.15;623310;227;64842;-63
2023/12/01 03:42:49;;;;;;;;;;;;;;;19.92;43.79;96307.23;623282;227;65715;-63
2023/12/01 03:45:17;;;;;;;;;;;;;;;19.92;43.77;96309.91;623323;227;64910;-61
2023/12/01 03:47:48;;;;;;;;;;;;;;;19.92;43.78;96307.23;623304;227;66709;-61
2023/12/01 03:50:18;;;;;;;;;;;;;;;19.92;43.82;96313.36;623281;227;64938;-63
2023/12/01 03:52:46;;;;;;;;;;;;;;;19.93;43.79;96306.94;623306;227;62598;-62
2023/12/01 03:55:14;;;;;;;;;;;;;;;19.92;43.81;96308.03;623317;227;67549;-62
2023/12/01 03:57:42;;;;;;;;;;;;;;;19.93;43.80;96306.15;623288;227;66850;-62
2023/12/01 04:00:13;;;;;;;;;;;;;;;19.92;43.80;96307.23;623290;227;63398;-62
2023/12/01 04:02:43;;;;;;;;;;;;;;;19.92;43.81;96294.70;623279;227;65023;-62
2023/12/01 04:05:17;;;;;;;;;;;;;;;19.92;43.84;96297.36;623366;227;64872;-62
2023/12/01 04:07:40;;;;;;;;;;;;;;;19.92;43.82;96302.69;623081;227;65047;-61
2023/12/01 04:10:10;;;;;;;;;;;;;;;19.92;43.85;96297.36;623303;227;67025;-62
2023/12/01 04:12:44;;;;;;;;;;;;;;;19.93;43.83;96308.81;618179;227;67059;-61
2023/12/01 04:15:12;;;;;;;;;;;;;;;19.92;43.84;96301.91;623268;227;63373;-62
2023/12/01 04:17:46;;;;;;;;;;;;;;;19.92;43.82;96280.57;623277;227;67304;-62
2023/12/01 04:20:20;;;;;;;;;;;;;;;19.92;43.84;96285.91;623222;227;67559;-62
2023/12/01 04:22:41;;;;;;;;;;;;;;;19.92;43.82;96292.02;623020;227;64565;-62
2023/12/01 04:25:08;;;;;;;;;;;;;;;19.92;43.83;96285.91;623309;227;67055;-62
2023/12/01 04:27:36;;;;;;;;;;;;;;;19.92;43.80;96291.23;623292;227;68221;-62
2023/12/01 04:30:13;;;;;;;;;;;;;;;19.91;43.82;96295.75;623308;227;64567;-62
2023/12/01 04:32:33;;;;;;;;;;;;;;;19.92;43.84;96301.91;622979;227;67503;-62
2023/12/01 04:35:01;;;;;;;;;;;;;;;19.92;43.84;96292.02;623348;227;66667;-63
2023/12/01 04:37:30;;;;;;;;;;;;;;;19.92;43.87;96275.23;623312;227;64739;-62
2023/12/01 04:39:57;;;;;;;;;;;;;;;19.92;43.86;96280.57;623265;227;68467;-62
2023/12/01 04:42:25;;;;;;;;;;;;;;;19.91;43.85;96287.75;623267;227;67558;-62
2023/12/01 04:44:52;;;;;;;;;;;;;;;19.92;43.83;96281.36;623388;227;62623;-62
2023/12/01 04:47:20;;;;;;;;;;;;;;;19.92;43.85;96289.36;623329;227;64851;-62
2023/12/01 04:49:47;;;;;;;;;;;;;;;19.92;43.84;96284.03;623291;227;65050;-63
2023/12/01 04:52:15;;;;;;;;;;;;;;;19.92;43.84;96280.57;623340;227;62641;-62
2023/12/01 04:54:42;;;;;;;;;;;;;;;19.92;43.85;96288.57;623286;227;64817;-62
2023/12/01 04:57:10;;;;;;;;;;;;;;;19.92;43.84;96280.57;618200;227;64807;-62
2023/12/01 04:59:37;;;;;;;;;;;;;;;19.91;43.84;96276.30;623347;227;64424;-62
2023/12/01 05:02:05;;;;;;;;;;;;;;;19.92;43.87;96280.57;623317;227;64752;-62
2023/12/01 05:04:32;;;;;;;;;;;;;;;19.91;43.83;96258.42;623334;227;67020;-62
2023/12/01 05:07:00;;;;;;;;;;;;;;;19.90;43.85;96264.84;623276;227;64522;-63
2023/12/01 05:09:27;;;;;;;;;;;;;;;19.92;43.84;96272.56;623362;227;65218;-67
2023/12/01 05:11:55;;;;;;;;;;;;;;;19.92;43.81;96270.69;623321;227;67075;-63
2023/12/01 05:14:22;;;;;;;;;;;;;;;19.92;43.84;96272.56;623327;227;64988;-62
2023/12/01 05:16:50;;;;;;;;;;;;;;;19.91;43.86;96274.41;623318;227;67177;-62
2023/12/01 05:19:17;;;;;;;;;;;;;;;19.90;43.80;96256.84;623328;227;66983;-62
2023/12/01 05:21:45;;;;;;;;;;;;;;;19.91;43.84;96266.41;623276;227;64799;-63
2023/12/01 05:24:12;;;;;;;;;;;;;;;19.91;43.84;96253.08;623400;227;67232;-62
2023/12/01 05:26:40;;;;;;;;;;;;;;;19.91;43.82;96250.42;623304;227;67097;-62
2023/12/01 05:29:13;;;;;;;;;;;;;;;19.91;43.85;96242.41;623313;227;64675;-63
2023/12/01 05:31:36;;;;;;;;;;;;;;;19.92;43.85;96259.23;623089;227;67303;-63
2023/12/01 05:34:05;;;;;;;;;;;;;;;19.91;43.84;96246.96;623219;227;67038;-62
2023/12/01 05:36:32;;;;;;;;;;;;;;;19.92;43.85;96248.57;623363;227;62659;-62
2023/12/01 05:39:00;;;;;;;;;;;;;;;19.91;43.85;96261.08;623313;227;64817;-62
2023/12/01 05:41:27;;;;;;;;;;;;;;;19.91;43.83;96263.75;623332;227;66993;-62
2023/12/01 05:43:55;;;;;;;;;;;;;;;19.92;43.84;96253.91;623329;227;62631;-62
2023/12/01 05:46:22;;;;;;;;;;;;;;;19.91;43.84;96245.08;623332;227;64846;-62
2023/12/01 05:48:51;;;;;;;;;;;;;;;19.91;43.83;96246.96;623379;227;64386;-63
2023/12/01 05:51:18;;;;;;;;;;;;;;;19.91;43.82;96238.96;623318;227;64866;-62
2023/12/01 05:53:46;;;;;;;;;;;;;;;19.91;43.84;96242.41;623328;227;66894;-62
2023/12/01 05:56:13;;;;;;;;;;;;;;;19.91;43.84;96230.96;623317;227;66891;-62
2023/12/01 05:58:41;;;;;;;;;;;;;;;19.91;43.86;96237.08;623310;227;64737;-63
2023/12/01 06:01:09;;;;;;;;;;;;;;;19.91;43.84;96230.96;623354;227;66757;-63
2023/12/01 06:03:36;;;;;;;;;;;;;;;19.91;43.86;96228.30;623325;227;64403;-62
2023/12/01 06:06:04;;;;;;;;;;;;;;;19.91;43.87;96228.30;623354;227;64391;-62
2023/12/01 06:08:31;;;;;;;;;;;;;;;19.91;43.92;96225.63;623329;227;66912;-63
2023/12/01 06:10:59;;;;;;;;;;;;;;;19.91;43.86;96225.63;623283;227;67180;-62
2023/12/01 06:13:26;;;;;;;;;;;;;;;19.91;43.88;96228.30;623393;227;62236;-63
2023/12/01 06:15:54;;;;;;;;;;;;;;;19.91;43.86;96220.30;623265;227;64299;-63
2023/12/01 06:18:21;;;;;;;;;;;;;;;19.91;43.90;96230.96;623291;227;64905;-62
2023/12/01 06:20:49;;;;;;;;;;;;;;;19.91;43.90;96228.30;623274;227;62427;-63
2023/12/01 06:23:16;;;;;;;;;;;;;;;19.90;43.89;96218.72;623264;227;67557;-63
2023/12/01 06:25:46;;;;;;;;;;;;;;;19.91;43.91;96225.63;623136;227;66836;-63
2023/12/01 06:28:13;;;;;;;;;;;;;;;19.90;43.88;96213.38;624563;227;64554;-63
2023/12/01 06:30:41;;;;;;;;;;;;;;;19.90;43.89;96216.05;624542;227;67198;-62
2023/12/01 06:33:08;;;;;;;;;;;;;;;19.91;43.91;96204.30;624456;226;67097;-67
2023/12/01 06:35:36;;;;;;;;;;;;;;;19.90;43.89;96216.05;624536;227;62077;-67
2023/12/01 06:38:04;;;;;;;;;;;;;;;19.90;43.88;96224.84;624553;227;67208;-67
2023/12/01 06:40:33;;;;;;;;;;;;;;;19.91;43.88;96222.96;624580;227;67102;-67
2023/12/01 06:43:00;;;;;;;;;;;;;;;19.91;43.94;96214.96;624489;227;64506;-66
2023/12/01 06:45:28;;;;;;;;;;;;;;;19.91;43.94;96213.09;624540;227;67143;-67
2023/12/01 06:47:58;;;;;;;;;;;;;;;19.90;43.95;96213.38;624523;227;64772;-66
2023/12/01 06:50:26;;;;;;;;;;;;;;;19.90;43.94;96203.50;624525;227;62718;-67
2023/12/01 06:52:54;;;;;;;;;;;;;;;19.89;43.94;96212.59;624603;227;67257;-67
2023/12/01 06:55:21;;;;;;;;;;;;;;;19.91;43.95;96225.63;624494;227;66899;-66
2023/12/01 06:57:49;;;;;;;;;;;;;;;19.91;43.94;96225.63;624553;227;64732;-67
2023/12/01 07:00:30;;;;;;;;;;;;;;;19.91;43.94;96217.62;624509;227;66990;-67
2023/12/01 07:02:57;;;;;;;;;;;;;;;19.91;43.99;96220.30;624560;227;66646;-67
2023/12/01 07:05:25;;;;;;;;;;;;;;;19.90;43.97;96222.17;624579;227;62335;-66
2023/12/01 07:07:54;;;;;;;;;;;;;;;19.90;43.96;96219.51;624517;227;67206;-67
2023/12/01 07:10:22;;;;;;;;;;;;;;;19.91;44.01;96228.30;624480;227;65326;-67
2023/12/01 07:12:50;;;;;;;;;;;;;;;19.90;43.97;96230.17;624532;227;64924;-67
2023/12/01 07:15:21;;;;;;;;;;;;;;;19.90;44.17;96226.72;624505;227;65041;-67
2023/12/01 07:17:50;;;;;;;;;;;;;;;19.89;43.91;96227.80;624417;227;64937;-69
2023/12/01 07:20:18;;;;;;;;;;;;;;;19.89;43.97;96215.27;624567;227;64897;-67
2023/12/01 07:22:46;;;;;;;;;;;;;;;19.90;44.02;96214.17;624529;227;64741;-66
2023/12/01 07:25:23;;;;;;;;;;;;;;;19.91;44.03;96209.62;624535;227;66941;-66
2023/12/01 07:27:53;;;;;;;;;;;;;;;19.92;43.92;96211.23;624547;227;64749;-65
2023/12/01 07:30:20;;;;;;;;;;;;;;;19.92;43.79;96224.57;624399;226;66838;-66
2023/12/01 07:32:48;;;;;;;;;;;;;;;19.93;43.69;96234.14;624466;226;66962;-67
2023/12/01 07:35:17;;;;;;;;;;;;;;;19.92;43.65;96228.03;624476;227;64577;-66
2023/12/01 07:37:45;;;;;;;;;;;;;;;19.91;43.51;96218.42;624539;226;67616;-66
2023/12/01 07:40:19;;;;;;;;;;;;;;;19.91;43.32;96213.09;624165;227;64837;-67
2023/12/01 07:42:47;;;;;;;;;;;;;;;19.92;43.23;96211.23;624514;227;64832;-67
2023/12/01 07:45:17;;;;;;;;;;;;;;;19.92;43.15;96225.36;624516;227;67181;-67
2023/12/01 07:47:44;;;;;;;;;;;;;;;19.92;43.09;96222.69;624562;227;67248;-68
2023/12/01 07:50:14;;;;;;;;;;;;;;;19.93;43.75;96223.48;623751;225;64837;-66
2023/12/01 07:52:43;;;;;;;;;;;;;;;19.95;43.00;96232.00;623780;227;68020;-66
2023/12/01 07:55:10;;;;;;;;;;;;;;;19.98;43.00;96223.43;624484;227;66827;-66
2023/12/01 07:57:38;;;;;;;;;;;;;;;19.99;43.02;96211.67;623385;227;64617;-67
2023/12/01 08:00:14;;;;;;;;;;;;;;;20.00;43.02;96221.28;622320;228;64695;-67
2023/12/01 08:02:37;;;;;;;;;;;;;;;20.01;43.08;96219.41;621606;227;67090;-67
2023/12/01 08:05:05;;;;;;;;;;;;;;;20.03;43.06;96201.25;621536;228;64690;-68
2023/12/01 08:07:32;;;;;;;;;;;;;;;20.03;43.15;96214.59;621477;228;65039;-66
2023/12/01 08:10:00;;;;;;;;;;;;;;;20.04;43.23;96214.29;621531;228;66917;-66
2023/12/01 08:12:28;;;;;;;;;;;;;;;20.05;43.27;96221.23;621482;228;64658;-68
2023/12/01 08:14:55;;;;;;;;;;;;;;;20.06;43.26;96222.02;621559;228;64765;-68
2023/12/01 08:17:23;;;;;;;;;;;;;;;20.07;43.29;96215.59;621539;228;64534;-68
2023/12/01 08:19:51;;;;;;;;;;;;;;;20.06;43.30;96225.48;621533;228;64892;-67
2023/12/01 08:22:19;;;;;;;;;;;;;;;20.08;43.30;96230.52;621482;228;64988;-67
2023/12/01 08:24:46;;;;;;;;;;;;;;;20.08;43.36;96218.00;621504;228;65507;-66
2023/12/01 08:27:14;;;;;;;;;;;;;;;20.09;43.33;96232.91;621576;228;62510;-67
2023/12/01 08:29:42;;;;;;;;;;;;;;;20.09;43.41;96216.91;621588;228;65008;-68
2023/12/01 08:32:10;;;;;;;;;;;;;;;20.11;43.41;96225.42;621443;228;67050;-67
2023/12/01 08:34:38;;;;;;;;;;;;;;;20.10;43.47;96223.03;623500;227;62418;-67
2023/12/01 08:37:06;;;;;;;;;;;;;;;20.11;43.47;96225.42;624196;226;67015;-66
2023/12/01 08:39:33;;;;;;;;;;;;;;;20.11;43.54;96225.42;626071;226;64949;-66
2023/12/01 08:42:01;;;;;;;;;;;;;;;20.11;43.52;96220.09;626107;226;64512;-65
2023/12/01 08:44:29;;;;;;;;;;;;;;;20.11;43.55;96228.09;626070;226;66762;-64
2023/12/01 08:46:57;;;;;;;;;;;;;;;20.12;43.60;96216.33;626053;226;67253;-65
2023/12/01 08:49:25;;;;;;;;;;;;;;;20.13;43.60;96215.27;626034;226;62438;-64
2023/12/01 08:51:55;;;;;;;;;;;;;;;20.14;43.62;96210.73;626119;226;67570;-65
2023/12/01 08:54:22;;;;;;;;;;;;;;;20.14;43.62;96206.18;625990;226;67076;-65
2023/12/01 08:56:50;;;;;;;;;;;;;;;20.14;43.67;96198.18;625835;225;64712;-66
2023/12/01 08:59:22;;;;;;;;;;;;;;;20.14;43.70;96186.72;623747;227;67206;-65
2023/12/01 09:01:47;;;;;;;;;;;;;;;20.14;43.70;96176.84;623427;227;64900;-65
2023/12/01 09:04:14;;;;;;;;;;;;;;;20.14;43.73;96176.84;623766;227;62676;-65
2023/12/01 09:06:42;;;;;;;;;;;;;;;20.16;43.76;96173.87;623825;227;66984;-65
2023/12/01 09:09:09;;;;;;;;;;;;;;;20.15;43.78;96182.96;623776;227;66985;-63
2023/12/01 09:11:37;;;;;;;;;;;;;;;20.14;43.82;96174.17;623802;227;62440;-66
2023/12/01 09:14:04;;;;;;;;;;;;;;;20.13;43.86;96185.93;623749;227;68070;-66
2023/12/01 09:16:32;;;;;;;;;;;;;;;20.14;43.93;96195.52;623748;227;67183;-65
2023/12/01 09:18:59;;;;;;;;;;;;;;;20.14;44.00;96200.06;623832;227;64570;-65
2023/12/01 09:21:27;;;;;;;;;;;;;;;20.12;44.05;96194.99;623747;227;67065;-67
2023/12/01 09:23:54;;;;;;;;;;;;;;;20.12;44.18;96181.66;623809;227;66876;-66
2023/12/01 09:26:22;;;;;;;;;;;;;;;20.12;44.20;96159.53;623780;227;64761;-66
2023/12/01 09:28:51;;;;;;;;;;;;;;;20.11;44.21;96158.73;623749;227;67001;-65
2023/12/01 09:31:18;;;;;;;;;;;;;;;20.10;44.20;96173.13;623890;227;66892;-64
2023/12/01 09:33:46;;;;;;;;;;;;;;;20.09;44.21;96158.22;623670;227;64727;-65
2023/12/01 09:36:17;;;;;;;;;;;;;;;20.10;44.30;96165.13;623736;227;67218;-65
2023/12/01 09:38:44;;;;;;;;;;;;;;;20.10;44.42;96165.13;623770;227;64487;-66
2023/12/01 09:41:12;;;;;;;;;;;;;;;20.10;44.44;96169.68;623753;227;62418;-66
2023/12/01 09:43:43;;;;;;;;;;;;;;;20.09;44.31;96163.55;623755;227;67208;-66
2023/12/01 09:46:09;;;;;;;;;;;;;;;20.10;44.20;96159.80;623620;227;64521;-65
2023/12/01 09:48:38;;;;;;;;;;;;;;;20.11;44.15;96149.95;623744;227;62723;-67
2023/12/01 09:51:06;;;;;;;;;;;;;;;20.10;44.21;96148.34;623719;227;64851;-66
2023/12/01 09:53:33;;;;;;;;;;;;;;;20.09;44.34;96144.88;623811;227;66706;-66
2023/12/01 09:56:05;;;;;;;;;;;;;;;20.09;44.32;96138.77;623769;227;64828;-65
2023/12/01 09:58:32;;;;;;;;;;;;;;;20.08;44.16;96140.64;623569;227;66738;-65
2023/12/01 10:01:00;;;;;;;;;;;;;;;20.09;44.04;96136.88;623818;227;67006;-65
2023/12/01 10:03:31;;;;;;;;;;;;;;;20.10;44.02;96143.01;623776;227;65200;-66
2023/12/01 10:05:58;;;;;;;;;;;;;;;20.09;44.06;96142.22;623775;227;64839;-66
2023/12/01 10:08:27;;;;;;;;;;;;;;;20.09;44.14;96142.22;623808;227;64637;-62
2023/12/01 10:10:54;;;;;;;;;;;;;;;20.10;44.33;96135.80;623842;227;62605;-61
2023/12/01 10:13:22;;;;;;;;;;;;;;;20.10;44.54;96135.80;623766;227;64606;-61
2023/12/01 10:15:50;;;;;;;;;;;;;;;20.10;44.69;96138.46;623822;227;66803;-61
2023/12/01 10:18:23;;;;;;;;;;;;;;;20.11;44.80;96140.06;623743;227;64733;-65
2023/12/01 10:21:07;;;;;;;;;;;;;;;20.10;44.96;96133.12;623564;227;65099;-64
2023/12/01 10:23:36;;;;;;;;;;;;;;;20.10;45.07;96127.79;623759;227;67096;-67
2023/12/01 10:26:07;;;;;;;;;;;;;;;20.10;45.06;96132.34;623787;227;64827;-66
2023/12/01 10:28:43;;;;;;;;;;;;;;;20.10;44.99;96132.34;623800;227;63968;-67
2023/12/01 10:31:09;;;;;;;;;;;;;;;20.10;44.99;96133.12;623526;227;66867;-65
2023/12/01 10:33:37;;;;;;;;;;;;;;;20.11;45.14;96133.94;622678;227;62789;-65
2023/12/01 10:36:11;;;;;;;;;;;;;;;20.10;45.34;96122.45;621544;228;64838;-65
2023/12/01 10:38:38;;;;;;;;;;;;;;;20.09;45.50;96104.88;621586;228;67027;-66
2023/12/01 10:41:08;;;;;;;;;;;;;;;20.10;45.58;96111.00;621594;228;62687;-66
2023/12/01 10:43:36;;;;;;;;;;;;;;;20.10;45.64;96106.45;621594;228;67190;-66
2023/12/01 10:46:05;;;;;;;;;;;;;;;20.10;45.65;96111.00;621575;228;66906;-66
2023/12/01 10:48:34;;;;;;;;;;;;;;;20.09;45.78;96110.21;621383;228;64617;-66
2023/12/01 10:51:05;;;;;;;;;;;;;;;20.10;45.84;96121.67;621504;228;67221;-66
2023/12/01 10:53:33;;;;;;;;;;;;;;;20.09;45.87;96118.21;621554;228;66099;-65
2023/12/01 10:56:02;;;;;;;;;;;;;;;20.10;45.98;96122.45;621482;228;64402;-65
2023/12/01 10:58:31;;;;;;;;;;;;;;;20.10;46.02;96117.12;621544;228;67205;-65
2023/12/01 11:00:59;;;;;;;;;;;;;;;20.10;46.12;96116.33;621520;228;66771;-65
2023/12/01 11:03:28;;;;;;;;;;;;;;;20.13;46.12;96108.57;621557;228;65901;-68
2023/12/01 11:05:57;;;;;;;;;;;;;;;20.15;46.05;96101.05;621645;228;67022;-65
2023/12/01 11:08:32;;;;;;;;;;;;;;;20.15;46.00;96093.05;621524;228;67009;-64
2023/12/01 11:11:17;;;;;;;;;;;;;;;20.17;46.10;96096.23;621440;228;64669;-66
2023/12/01 11:13:48;;;;;;;;;;;;;;;20.18;46.11;96103.14;621556;228;64445;-65
2023/12/01 11:16:16;;;;;;;;;;;;;;;20.17;46.36;96100.78;621203;228;64482;-66
2023/12/01 11:18:44;;;;;;;;;;;;;;;20.14;46.53;96112.81;621553;228;64606;-67
2023/12/01 11:21:12;;;;;;;;;;;;;;;20.13;46.45;96127.25;621608;228;65216;-66
2023/12/01 11:23:39;;;;;;;;;;;;;;;20.13;46.38;96123.76;621563;228;64779;-66
2023/12/01 11:26:07;;;;;;;;;;;;;;;20.12;46.34;96108.84;621565;228;62390;-66
2023/12/01 11:33:54;;;;;;;;;;;;;;;20.11;46.65;96096.60;622716;227;62435;-67
2023/12/01 11:36:29;;;;;;;;;;;;;;;20.10;46.48;96098.45;623755;227;66791;-67
2023/12/01 11:41:44;;;;;;;;;;;;;;;20.09;46.47;96096.88;626120;226;64989;-67
2023/12/01 11:44:14;;;;;;;;;;;;;;;20.09;46.21;96101.42;626008;226;66943;-67
2023/12/01 11:46:42;;;;;;;;;;;;;;;20.09;46.13;96090.75;626136;226;67010;-68
2023/12/01 11:49:10;;;;;;;;;;;;;;;20.10;45.98;96095.00;626036;226;63503;-66
2023/12/01 11:51:38;;;;;;;;;;;;;;;20.11;45.99;96088.59;626088;226;67334;-66
2023/12/01 11:54:06;;;;;;;;;;;;;;;20.10;46.21;96077.11;626177;226;66866;-66
2023/12/01 11:56:33;;;;;;;;;;;;;;;20.11;46.36;96080.59;626082;226;64880;-65
2023/12/01 11:59:02;;;;;;;;;;;;;;;20.11;46.56;96093.94;626041;226;64862;-67
2023/12/01 12:01:33;;;;;;;;;;;;;;;20.11;46.72;96088.59;626135;226;64360;-65
2023/12/01 12:04:04;;;;;;;;;;;;;;;20.11;46.69;96084.05;626138;226;64801;-66
2023/12/01 12:06:32;;;;;;;;;;;;;;;20.10;46.77;96087.78;625940;226;67039;-67
2023/12/01 12:09:06;;;;;;;;;;;;;;;20.10;46.76;96087.78;626089;226;65089;-68
2023/12/01 12:11:29;;;;;;;;;;;;;;;20.11;46.67;96083.27;625780;226;64829;-67
2023/12/01 12:14:01;;;;;;;;;;;;;;;20.10;46.69;96085.11;626011;226;67188;-68
2023/12/01 12:16:29;;;;;;;;;;;;;;;20.12;46.72;96092.84;626086;226;67110;-67
2023/12/01 12:19:03;;;;;;;;;;;;;;;20.12;46.69;96087.50;626132;226;64707;-67
2023/12/01 12:21:31;;;;;;;;;;;;;;;20.11;46.77;96085.94;626055;226;64995;-66
2023/12/01 12:24:00;;;;;;;;;;;;;;;20.11;46.85;96078.72;626095;226;67019;-66
2023/12/01 12:26:28;;;;;;;;;;;;;;;20.11;46.91;96076.05;626012;226;64763;-66
2023/12/01 12:28:57;;;;;;;;;;;;;;;20.11;46.92;96072.59;626076;226;66737;-66
2023/12/01 12:31:25;;;;;;;;;;;;;;;20.12;46.92;96088.30;626037;226;67019;-66
2023/12/01 12:33:59;;;;;;;;;;;;;;;20.12;46.97;96088.30;623967;226;64967;-66
2023/12/01 12:36:27;;;;;;;;;;;;;;;20.12;47.00;96090.17;622537;228;67283;-66
2023/12/01 12:38:55;;;;;;;;;;;;;;;20.12;46.95;96090.17;622565;228;67005;-66
2023/12/01 12:41:27;;;;;;;;;;;;;;;20.11;46.98;96092.05;622556;228;64690;-65
2023/12/01 12:43:55;;;;;;;;;;;;;;;20.12;46.91;96074.96;622598;228;65027;-66
2023/12/01 12:46:23;;;;;;;;;;;;;;;20.11;46.94;96064.59;622613;228;65108;-66
2023/12/01 12:48:52;;;;;;;;;;;;;;;20.12;47.01;96072.29;622570;228;64723;-65
2023/12/01 12:51:21;;;;;;;;;;;;;;;20.12;47.12;96085.63;622547;227;64899;-67
2023/12/01 12:53:48;;;;;;;;;;;;;;;20.12;47.07;96085.63;622549;228;67099;-67
2023/12/01 12:56:17;;;;;;;;;;;;;;;20.12;47.10;96079.50;622536;228;64720;-67
2023/12/01 12:58:45;;;;;;;;;;;;;;;20.12;47.08;96079.50;622571;228;64983;-67
2023/12/01 13:01:16;;;;;;;;;;;;;;;20.13;47.10;96073.08;622669;228;64904;-67